• Join FlightAware (Why Join?)
  • Login
  • US Flag 
04:05PM EDT


 

Airport Tracker/Info


-or-


 

Live Flight TrackerFlight Track Log ✈ AWE874 ✈ 16-Jun-2013 ✈ KDCA - KCLT

Flight Track Log - Related Links

Times and Time Zones

All times are in EDT time to prevent confusion due to time zone crossing. See the AWE874 flight status page for this flight to view local times or setup timezone preferences in your user account.

Time Position Orientation Groundspeed Altitude Reporting Facility
EDT Latitude Longitude Course Direction KTS MPH feet Rate Location/Type
06:47AM 38.8667 -77.0500 225° Southwest 162 186 1,000  Level Potomac TRACON
06:49AM 38.9617 -77.1561 319° Northwest 217 250 6,400 2,760 Climbing Washington Center
06:50AM 38.6462 -77.2667 180° South  Level FlightAware Approximate
06:50AM 38.9939 -77.2314 299° West 244 281 9,800  Level Washington Center
06:51AM 38.5688 -77.3420 222° Southwest  Level FlightAware Approximate
06:51AM 38.9244 -77.2886 213° Southwest 195 224 11,800  Level Washington Center
06:52AM 38.4966 -77.4306 225° Southwest  Level FlightAware Approximate
06:53AM 38.4260 -77.5214 225° Southwest  Level FlightAware Approximate
06:53AM 38.7583 -77.3806 203° Southwest 291 335 15,000  Level Washington Center
06:54AM 38.6639 -77.4289 202° Southwest 336 387 15,000 960 Level Washington Center
06:55AM 38.5733 -77.4769 203° Southwest 358 412 17,000 1,860 Climbing Washington Center
06:56AM 38.4747 -77.5275 202° Southwest 373 429 18,800 1,860 Climbing Washington Center
06:57AM 38.3775 -77.5939 208° Southwest 385 443 20,900 2,100 Climbing Washington Center
06:58AM 38.3047 -77.7031 230° Southwest 391 450 23,100 2,580 Climbing Washington Center
06:59AM 38.2239 -77.7908 220° Southwest 396 456 26,000 1,980 Climbing Washington Center
07:00AM 38.1408 -77.8833 221° Southwest 396 456 27,000 840 Climbing Washington Center
07:01AM 38.0578 -77.9758 221° Southwest 396 456 27,800 960 Climbing Washington Center
07:02AM 37.9642 -78.0756 220° Southwest 396 456 29,000 540 Climbing Washington Center
07:03AM 37.8828 -78.1756 224° Southwest 396 456 29,000  Level Washington Center
07:04AM 37.8567 -78.3139 257° West 391 450 29,000 180 Level Washington Center
07:05AM 37.8328 -78.4444 257° West 396 456 29,400 1,500 Climbing Washington Center
07:06AM 37.7653 -78.5628 234° Southwest 396 456 32,000 1,260 Climbing Washington Center
07:07AM 37.6833 -78.6725 227° Southwest 411 473 32,000  Level Washington Center
07:08AM 37.6033 -78.7767 226° Southwest 442 509 32,000  Level Washington Center
07:09AM 37.5189 -78.8858 226° Southwest 447 514 32,000  Level Washington Center
07:10AM 37.4344 -78.9997 227° Southwest 447 514 32,000  Level Washington Center
07:11AM 37.3456 -79.1133 225° Southwest 447 514 32,000 -180 Level Washington Center
07:12AM 37.2569 -79.2242 225° Southwest 447 514 31,700 -780 Descending Washington Center
07:13AM 37.1453 -79.3258 216° Southwest 455 524 30,500 -1,140 Descending Washington Center
07:14AM 37.0381 -79.4142 213° Southwest 461 531 29,500 -780 Descending Washington Center
07:15AM 36.9308 -79.5025 213° Southwest 466 536 29,000 -540 Descending Washington Center
07:16AM 36.8300 -79.5881 214° Southwest 460 529 28,500 -720 Descending Washington Center
07:17AM 36.7272 -79.6708 213° Southwest 455 524 27,600 -1,020 Descending Washington Center
07:19AM 36.5708 -79.7944 212° Southwest 447 514 26,000 -960 Descending Atlanta Center
07:20AM 36.4714 -79.8744 213° Southwest 440 506 25,100 -1,560 Descending Atlanta Center
07:21AM 36.3619 -79.9628 213° Southwest 435 501 22,900 -1,560 Descending Atlanta Center
07:22AM 36.2664 -80.0422 214° Southwest 429 494 22,000 -1,260 Descending Atlanta Center
07:23AM 36.1731 -80.1239 215° Southwest 419 482 20,400 -1,980 Descending Atlanta Center
07:24AM 36.0939 -80.1919 215° Southwest 401 461 18,100 -1,980 Descending Atlanta Center
07:25AM 36.0044 -80.2681 215° Southwest 396 456 16,500 -1,680 Descending Atlanta Center
07:26AM 35.9375 -80.3303 217° Southwest 371 427 15,200 -1,620 Descending Atlanta Center
07:26AM 35.9131 -80.3467 209° Southwest 389 448 14,900 -1,440 Descending Atlanta Center
07:27AM 35.8583 -80.4006 219° Southwest 339 390 13,800 -1,440 Descending Atlanta Center
07:27AM 35.8358 -80.4142 206° Southwest 368 423 13,500 -1,020 Descending Atlanta Center
07:28AM 35.7850 -80.4600 216° Southwest 313 360 12,800 -1,020 Descending Atlanta Center
07:28AM 35.7667 -80.4736 211° Southwest 330 380 12,500 -1,500 Descending Atlanta Center
07:29AM 35.7200 -80.5167 217° Southwest 290 334 11,300 -1,620 Descending Atlanta Center
07:30AM 35.6444 -80.5761 213° Southwest 291 335 9,700 -1,560 Descending Atlanta Center
07:31AM 35.5747 -80.6250 210° Southwest 283 326 8,200 -1,500 Descending Atlanta Center
07:32AM 35.5072 -80.6711 209° Southwest 282 325 6,700 -1,260 Descending Atlanta Center
07:33AM 35.4394 -80.7122 206° Southwest 273 314 5,700 -1,140 Descending Atlanta Center
07:34AM 35.3739 -80.7556 208° Southwest 263 303 4,500 -1,080 Descending Atlanta Center
07:35AM 35.3186 -80.7958 211° Southwest 224 258 3,600 -900 Descending Atlanta Center